createdAt,value
2023-04-14T00:00:47.137Z,0.30
2023-04-14T00:03:15.149Z,0.40
2023-04-14T00:05:43.132Z,0.60
2023-04-14T00:08:10.988Z,0.50
2023-04-14T00:10:38.887Z,0.50
2023-04-14T00:13:08.145Z,0.60
2023-04-14T00:15:36.186Z,0.33
2023-04-14T00:18:04.137Z,0.50
2023-04-14T00:20:32.073Z,0.50
2023-04-14T00:22:59.907Z,0.60
2023-04-14T00:25:27.781Z,0.53
2023-04-14T00:27:55.748Z,0.60
2023-04-14T00:30:25.007Z,0.50
2023-04-14T00:32:53.000Z,0.50
2023-04-14T00:35:20.949Z,0.63
2023-04-14T00:37:48.782Z,0.60
2023-04-14T00:40:16.773Z,0.60
2023-04-14T00:42:45.231Z,0.67
2023-04-14T00:45:13.700Z,0.80
2023-04-14T00:47:46.924Z,0.73
2023-04-14T00:50:16.499Z,0.60
2023-04-14T00:52:47.065Z,0.53
2023-04-14T00:55:16.457Z,0.90
2023-04-14T00:57:44.985Z,0.60
2023-04-14T01:00:14.081Z,0.70
2023-04-14T01:02:43.603Z,0.90
2023-04-14T01:05:11.789Z,0.90
2023-04-14T01:07:40.476Z,0.93
2023-04-14T01:10:09.232Z,0.70
2023-04-14T01:12:56.745Z,0.80
2023-04-14T01:15:31.439Z,0.60
2023-04-14T01:18:08.510Z,0.97
2023-04-14T01:20:41.775Z,0.80
2023-04-14T01:23:12.745Z,0.60
2023-04-14T01:26:08.236Z,0.90
2023-04-14T01:28:49.514Z,0.50
2023-04-14T01:31:26.683Z,0.70
2023-04-14T01:33:59.953Z,0.97
2023-04-14T01:36:35.455Z,0.83
2023-04-14T01:39:09.214Z,1.00
2023-04-14T01:41:40.383Z,0.60
2023-04-14T01:44:10.636Z,0.70
2023-04-14T01:46:42.422Z,0.67
2023-04-14T01:49:11.497Z,0.70
2023-04-14T01:51:41.642Z,0.90
2023-04-14T01:54:11.002Z,0.87
2023-04-14T01:56:40.924Z,0.70
2023-04-14T01:59:10.888Z,0.80
2023-04-14T02:01:41.872Z,1.10
2023-04-14T02:04:11.033Z,1.00
2023-04-14T02:06:40.018Z,0.60
2023-04-14T02:09:12.398Z,0.70
2023-04-14T02:11:42.289Z,0.70
2023-04-14T02:14:11.280Z,0.90
2023-04-14T02:16:41.749Z,0.90
2023-04-14T02:19:10.807Z,0.90
2023-04-14T02:21:40.319Z,0.97
2023-04-14T02:24:08.785Z,0.90
2023-04-14T02:26:42.479Z,1.23
2023-04-14T02:29:14.450Z,0.70
2023-04-14T02:31:47.202Z,0.80
2023-04-14T02:34:18.307Z,1.00
2023-04-14T02:36:53.323Z,0.60
2023-04-14T02:39:28.763Z,0.70
2023-04-14T02:42:01.149Z,1.00
2023-04-14T02:44:33.330Z,1.10
2023-04-14T02:47:07.413Z,1.10
2023-04-14T02:49:38.972Z,1.00
2023-04-14T02:52:08.166Z,1.10
2023-04-14T02:54:38.748Z,1.17
2023-04-14T02:57:07.233Z,0.90
2023-04-14T02:59:36.388Z,0.70
2023-04-14T03:02:06.479Z,0.90
2023-04-14T03:04:38.487Z,0.97
2023-04-14T03:07:08.604Z,0.93
2023-04-14T03:09:37.197Z,0.93
2023-04-14T03:12:06.756Z,0.80
2023-04-14T03:14:35.768Z,1.17
2023-04-14T03:17:05.996Z,1.10
2023-04-14T03:19:34.897Z,0.70
2023-04-14T03:22:04.492Z,0.80
2023-04-14T03:24:35.196Z,0.90
2023-04-14T03:27:08.292Z,0.90
2023-04-14T03:29:39.103Z,0.83
2023-04-14T03:32:09.548Z,0.77
2023-04-14T03:34:42.425Z,1.20
2023-04-14T03:37:11.238Z,1.00
2023-04-14T03:39:40.475Z,0.80
2023-04-14T03:42:09.029Z,1.03
2023-04-14T03:44:39.882Z,1.00
2023-04-14T03:47:10.597Z,0.80
2023-04-14T03:49:40.437Z,0.73
2023-04-14T03:52:11.592Z,1.23
2023-04-14T03:54:42.614Z,1.10
2023-04-14T03:57:12.125Z,1.10
2023-04-14T03:59:41.025Z,0.70
2023-04-14T04:02:11.911Z,1.17
2023-04-14T04:04:40.955Z,0.80
2023-04-14T04:07:12.975Z,0.90
2023-04-14T04:09:42.787Z,1.17
2023-04-14T04:12:12.605Z,0.70
2023-04-14T04:14:41.407Z,1.07
2023-04-14T04:17:13.442Z,1.10
2023-04-14T04:19:44.516Z,1.10
2023-04-14T04:22:15.549Z,0.90
2023-04-14T04:24:45.789Z,1.23
2023-04-14T04:27:26.596Z,1.10
2023-04-14T04:29:55.720Z,0.87
2023-04-14T04:32:25.198Z,1.13
2023-04-14T04:34:54.478Z,1.00
2023-04-14T04:37:22.942Z,1.10
2023-04-14T04:39:50.833Z,0.97
2023-04-14T04:42:18.806Z,1.03
2023-04-14T04:44:46.705Z,1.17
2023-04-14T04:47:14.913Z,0.90
2023-04-14T04:49:44.369Z,1.00
2023-04-14T04:52:12.244Z,0.93
2023-04-14T04:54:40.325Z,1.03
2023-04-14T04:57:08.230Z,1.33
2023-04-14T04:59:37.969Z,1.00
2023-04-14T05:02:06.366Z,0.90
2023-04-14T05:04:34.399Z,0.97
2023-04-14T05:07:04.069Z,0.70
2023-04-14T05:09:31.952Z,0.83
2023-04-14T05:11:59.839Z,0.70
2023-04-14T05:14:27.947Z,0.90
2023-04-14T05:16:55.838Z,1.23
2023-04-14T05:19:23.713Z,1.00
2023-04-14T05:21:51.576Z,0.90
2023-04-14T05:24:20.755Z,0.73
2023-04-14T05:27:11.622Z,0.90
2023-04-14T05:29:36.643Z,1.00
2023-04-14T05:32:04.638Z,0.70
2023-04-14T05:34:32.496Z,0.67
2023-04-14T05:37:00.486Z,0.90
2023-04-14T05:39:29.769Z,0.93
2023-04-14T05:41:59.574Z,1.10
2023-04-14T05:44:27.520Z,0.80
2023-04-14T05:46:55.479Z,0.90
2023-04-14T05:49:23.411Z,0.70
2023-04-14T05:51:51.326Z,0.60
2023-04-14T05:54:19.195Z,0.77
2023-04-14T05:56:48.473Z,0.50
2023-04-14T05:59:17.331Z,0.50
2023-04-14T06:01:45.530Z,0.70
2023-04-14T06:04:13.575Z,0.40
2023-04-14T06:06:41.710Z,0.40
2023-04-14T06:09:09.746Z,0.30
2023-04-14T06:11:38.186Z,0.30
2023-04-14T06:14:07.551Z,0.30
2023-04-14T06:16:35.573Z,0.30
2023-04-14T06:19:03.655Z,0.40
2023-04-14T06:21:32.489Z,0.33
2023-04-14T06:24:00.438Z,0.43
2023-04-14T06:26:46.774Z,0.40
2023-04-14T06:29:35.171Z,0.37
2023-04-14T06:32:10.375Z,0.30
2023-04-14T06:34:38.435Z,0.40
2023-04-14T06:37:06.721Z,0.30
2023-04-14T06:39:39.309Z,0.20
2023-04-14T06:42:16.092Z,0.30
2023-04-14T06:45:14.176Z,0.30
2023-04-14T06:48:01.241Z,0.20
2023-04-14T06:50:29.178Z,0.20
2023-04-14T06:55:59.733Z,0.20
2023-04-14T06:58:54.200Z,0.30
2023-04-14T07:01:41.633Z,0.20
2023-04-14T07:04:24.110Z,0.30
2023-04-14T07:07:14.578Z,0.30
2023-04-14T07:09:51.813Z,0.30
2023-04-14T07:12:27.355Z,0.30
2023-04-14T07:15:02.925Z,0.20
2023-04-14T07:17:32.241Z,0.30
2023-04-14T07:20:20.201Z,0.27
2023-04-14T07:22:58.393Z,0.40
2023-04-14T07:25:32.871Z,0.30
2023-04-14T07:30:57.263Z,0.30
2023-04-14T07:33:30.368Z,0.40
2023-04-14T07:36:03.407Z,0.20
2023-04-14T07:38:32.355Z,0.30
2023-04-14T07:41:01.316Z,0.30
2023-04-14T07:43:34.754Z,0.20
2023-04-14T07:46:04.314Z,0.20
2023-04-14T07:48:34.584Z,0.20
2023-04-14T07:51:03.105Z,0.30
2023-04-14T07:53:31.595Z,0.20
2023-04-14T07:56:00.067Z,0.20
2023-04-14T07:58:29.551Z,0.23
2023-04-14T08:00:58.236Z,0.23
2023-04-14T08:03:26.504Z,0.27
2023-04-14T08:05:56.373Z,0.30
2023-04-14T08:08:24.366Z,0.30
2023-04-14T08:10:52.243Z,0.20
2023-04-14T08:13:20.241Z,0.20
2023-04-14T08:15:48.188Z,0.20
2023-04-14T08:18:16.293Z,0.50
2023-04-14T08:20:44.240Z,0.10
2023-04-14T08:23:13.463Z,0.13
2023-04-14T08:25:42.265Z,0.30
2023-04-14T08:28:10.123Z,0.20
2023-04-14T08:30:38.001Z,0.20
2023-04-14T08:33:06.014Z,0.10
2023-04-14T08:35:38.624Z,0.20
2023-04-14T08:38:09.307Z,0.20
2023-04-14T08:40:39.960Z,0.20
2023-04-14T08:43:08.403Z,0.20
2023-04-14T08:45:37.304Z,0.17
2023-04-14T08:48:06.555Z,0.20
2023-04-14T08:50:38.326Z,0.13
2023-04-14T08:53:10.747Z,0.20
2023-04-14T08:55:42.221Z,0.20
2023-04-14T08:58:11.428Z,0.20
2023-04-14T09:00:40.311Z,0.10
2023-04-14T09:03:09.511Z,0.27
2023-04-14T09:05:38.069Z,0.20
2023-04-14T09:08:06.372Z,0.20
2023-04-14T09:10:35.635Z,0.20
2023-04-14T09:13:09.723Z,0.10
2023-04-14T09:15:38.242Z,0.13
2023-04-14T09:18:06.491Z,0.10
2023-04-14T09:20:41.110Z,0.20
2023-04-14T09:23:10.444Z,0.20
2023-04-14T09:25:40.084Z,0.13
2023-04-14T09:28:09.537Z,0.10
2023-04-14T09:30:37.897Z,0.20
2023-04-14T09:33:07.278Z,0.20
2023-04-14T09:35:45.969Z,0.20
2023-04-14T09:38:14.153Z,0.20
2023-04-14T09:40:44.222Z,0.30
2023-04-14T09:43:26.904Z,0.10
2023-04-14T09:45:55.926Z,0.30
2023-04-14T09:48:24.299Z,0.20
2023-04-14T09:51:00.177Z,0.20
2023-04-14T09:53:29.670Z,0.20
2023-04-14T09:55:59.681Z,0.20
2023-04-14T09:58:32.669Z,0.17
2023-04-14T10:01:04.550Z,0.20
2023-04-14T10:03:38.019Z,0.20
2023-04-14T10:06:09.722Z,0.10
2023-04-14T10:08:42.715Z,0.20
2023-04-14T10:11:21.304Z,0.20
2023-04-14T10:13:51.932Z,0.20
2023-04-14T10:16:20.021Z,0.20
2023-04-14T10:18:48.016Z,0.30
2023-04-14T10:21:17.377Z,0.20
2023-04-14T10:23:46.251Z,0.20
2023-04-14T10:26:15.734Z,0.10
2023-04-14T10:28:46.328Z,0.20
2023-04-14T10:31:20.059Z,0.20
2023-04-14T10:33:48.579Z,0.10
2023-04-14T10:36:24.566Z,0.30
2023-04-14T10:39:00.885Z,0.13
2023-04-14T10:41:29.308Z,0.20
2023-04-14T10:43:57.227Z,0.20
2023-04-14T10:46:26.653Z,0.20
2023-04-14T10:48:55.249Z,0.20
2023-04-14T10:51:35.997Z,0.40
2023-04-14T10:54:04.753Z,0.20
2023-04-14T10:56:32.741Z,0.20
2023-04-14T10:59:00.760Z,0.20
2023-04-14T11:01:32.859Z,0.20
2023-04-14T11:04:18.536Z,0.10
2023-04-14T11:06:52.322Z,0.20
2023-04-14T11:09:37.970Z,0.20
2023-04-14T11:12:23.238Z,0.20
2023-04-14T11:14:55.624Z,0.20
2023-04-14T11:17:25.017Z,0.20
2023-04-14T11:19:55.212Z,0.20
2023-04-14T11:22:39.353Z,0.20
2023-04-14T11:25:08.601Z,0.20
2023-04-14T11:27:36.525Z,0.20
2023-04-14T11:30:06.978Z,0.20
2023-04-14T11:32:48.909Z,0.20
2023-04-14T11:35:17.064Z,0.20
2023-04-14T11:37:45.938Z,0.20
2023-04-14T11:40:15.424Z,0.20
2023-04-14T11:42:46.431Z,0.20
2023-04-14T11:45:16.401Z,0.20
2023-04-14T11:47:58.324Z,0.23
2023-04-14T11:50:27.440Z,0.20
2023-04-14T11:52:59.283Z,0.20
2023-04-14T11:55:28.079Z,0.20
2023-04-14T11:57:56.919Z,0.17
2023-04-14T12:00:25.431Z,0.30
2023-04-14T12:02:55.227Z,0.10
2023-04-14T12:05:30.118Z,0.20
2023-04-14T12:08:00.165Z,0.20
2023-04-14T12:10:28.687Z,0.20
2023-04-14T12:13:04.159Z,0.20
2023-04-14T12:15:34.496Z,0.30
2023-04-14T12:18:05.006Z,0.20
2023-04-14T12:20:42.913Z,0.20
2023-04-14T12:23:14.449Z,0.20
2023-04-14T12:25:42.610Z,0.30
2023-04-14T12:28:10.915Z,0.30
2023-04-14T12:30:38.966Z,0.27
2023-04-14T12:33:13.037Z,0.20
2023-04-14T12:35:41.404Z,0.30
2023-04-14T12:38:13.631Z,0.20
2023-04-14T12:40:43.796Z,0.20
2023-04-14T12:43:12.005Z,0.20
2023-04-14T12:45:43.858Z,0.10
2023-04-14T12:48:13.661Z,0.20
2023-04-14T12:50:41.692Z,0.20
2023-04-14T12:53:26.014Z,0.20
2023-04-14T12:56:06.869Z,0.30
2023-04-14T12:58:36.316Z,0.23
2023-04-14T13:01:05.469Z,0.20
2023-04-14T13:03:49.954Z,0.30
2023-04-14T13:06:19.064Z,0.20
2023-04-14T13:08:48.247Z,0.20
2023-04-14T13:11:16.975Z,0.20
2023-04-14T13:13:45.394Z,0.20
2023-04-14T13:16:16.687Z,0.13
2023-04-14T13:18:47.624Z,0.20
2023-04-14T13:21:15.831Z,0.20
2023-04-14T13:23:43.925Z,0.23
2023-04-14T13:26:12.059Z,0.20
2023-04-14T13:28:40.161Z,0.30
2023-04-14T13:31:08.233Z,0.30
2023-04-14T13:33:36.407Z,0.20
2023-04-14T13:36:05.950Z,0.13
2023-04-14T13:38:34.038Z,0.20
2023-04-14T13:41:01.942Z,0.20
2023-04-14T13:43:30.522Z,0.20
2023-04-14T13:45:58.973Z,0.20
2023-04-14T13:48:27.215Z,0.20
2023-04-14T13:50:55.834Z,0.30
2023-04-14T13:53:25.298Z,0.30
2023-04-14T13:55:53.231Z,0.20
2023-04-14T13:58:21.308Z,0.20
2023-04-14T14:00:49.227Z,0.20
2023-04-14T14:03:17.482Z,0.20
2023-04-14T14:05:45.483Z,0.30
2023-04-14T14:08:16.182Z,0.20
2023-04-14T14:10:46.768Z,0.20
2023-04-14T14:13:16.481Z,0.30
2023-04-14T14:15:45.230Z,0.30
2023-04-14T14:18:14.312Z,0.30
2023-04-14T14:20:42.261Z,0.20
2023-04-14T14:23:11.971Z,0.27
2023-04-14T14:25:40.761Z,0.27
2023-04-14T14:28:10.094Z,0.20
2023-04-14T14:30:37.964Z,0.20
2023-04-14T14:33:05.833Z,0.20
2023-04-14T14:35:33.775Z,0.20
2023-04-14T14:38:01.633Z,0.20
2023-04-14T14:40:30.436Z,0.30
2023-04-14T14:42:58.434Z,0.20
2023-04-14T14:45:31.059Z,0.30
2023-04-14T14:48:01.418Z,0.23
2023-04-14T14:50:29.328Z,0.20
2023-04-14T14:52:57.143Z,0.20
2023-04-14T14:55:25.191Z,0.20
2023-04-14T14:57:53.052Z,0.20
2023-04-14T15:00:21.305Z,0.30
2023-04-14T15:02:50.747Z,0.20
2023-04-14T15:05:19.008Z,0.20
2023-04-14T15:07:46.874Z,0.20
2023-04-14T15:10:16.185Z,0.27
2023-04-14T15:12:44.232Z,0.20
2023-04-14T15:15:12.914Z,0.30
2023-04-14T15:17:40.893Z,0.20
2023-04-14T15:20:11.481Z,0.20
2023-04-14T15:22:39.432Z,0.20
2023-04-14T15:25:09.122Z,0.20
2023-04-14T15:27:37.164Z,0.20
2023-04-14T15:30:05.796Z,0.20
2023-04-14T15:32:33.963Z,0.20
2023-04-14T15:35:01.872Z,0.20
2023-04-14T15:37:31.111Z,0.20
2023-04-14T15:39:59.075Z,0.10
2023-04-14T15:42:26.975Z,0.20
2023-04-14T15:44:54.883Z,0.20
2023-04-14T15:47:22.812Z,0.17
2023-04-14T15:50:02.264Z,0.20
2023-04-14T15:52:39.378Z,0.30
2023-04-14T15:55:08.876Z,0.10
2023-04-14T15:57:37.054Z,0.17
2023-04-14T16:00:07.334Z,0.20
2023-04-14T16:02:35.819Z,0.20
2023-04-14T16:05:05.068Z,0.20
2023-04-14T16:07:33.363Z,0.17
2023-04-14T16:10:04.935Z,0.20
2023-04-14T16:12:35.081Z,0.20
2023-04-14T16:15:03.407Z,0.20
2023-04-14T16:17:31.601Z,0.20
2023-04-14T16:19:59.506Z,0.20
2023-04-14T16:22:27.535Z,0.20
2023-04-14T16:24:55.499Z,0.10
2023-04-14T16:27:24.815Z,0.20
2023-04-14T16:29:52.800Z,0.30
2023-04-14T16:32:20.668Z,0.30
2023-04-14T16:34:48.712Z,0.27
2023-04-14T16:37:16.765Z,0.10
2023-04-14T16:39:44.680Z,0.20
2023-04-14T16:42:12.579Z,0.30
2023-04-14T16:44:41.963Z,1.13
2023-04-14T16:47:10.051Z,0.20
2023-04-14T16:49:37.908Z,0.20
2023-04-14T16:52:05.842Z,0.10
2023-04-14T16:54:33.824Z,0.30
2023-04-14T16:57:01.640Z,0.20
2023-04-14T16:59:30.065Z,0.20
2023-04-14T17:01:59.441Z,0.30
2023-04-14T17:04:27.756Z,0.20
2023-04-14T17:06:56.599Z,0.20
2023-04-14T17:09:25.053Z,0.20
2023-04-14T17:11:53.036Z,0.20
2023-04-14T17:14:22.629Z,0.20
2023-04-14T17:16:50.560Z,0.23
2023-04-14T17:19:19.822Z,0.20
2023-04-14T17:21:49.589Z,0.23
2023-04-14T17:24:17.476Z,0.30
2023-04-14T17:26:45.743Z,0.20
2023-04-14T17:29:13.661Z,0.30
2023-04-14T17:31:42.270Z,0.30
2023-04-14T17:34:11.723Z,0.30
2023-04-14T17:36:41.119Z,0.20
2023-04-14T17:39:10.274Z,0.20
2023-04-14T17:41:38.543Z,0.30
2023-04-14T17:44:06.501Z,0.20
2023-04-14T17:46:34.417Z,0.30
2023-04-14T17:49:03.543Z,0.20
2023-04-14T17:51:32.334Z,0.20
2023-04-14T17:54:02.020Z,0.30
2023-04-14T17:56:30.665Z,0.20
2023-04-14T17:58:58.782Z,0.20
2023-04-14T18:01:26.823Z,0.30
2023-04-14T18:03:55.251Z,0.30
2023-04-14T18:06:23.374Z,0.30
2023-04-14T18:08:51.510Z,0.20
2023-04-14T18:11:20.776Z,0.30
2023-04-14T18:13:48.737Z,0.30
2023-04-14T18:16:18.408Z,0.30
2023-04-14T18:18:46.374Z,0.30
2023-04-14T18:21:14.295Z,0.30
2023-04-14T18:23:42.684Z,0.30
2023-04-14T18:28:42.809Z,0.20
2023-04-14T18:31:13.673Z,0.20
2023-04-14T18:33:41.837Z,0.30
2023-04-14T18:36:10.276Z,0.27
2023-04-14T18:38:38.184Z,0.30
2023-04-14T18:41:06.774Z,0.30
2023-04-14T18:43:34.917Z,0.27
2023-04-14T18:46:04.360Z,0.30
2023-04-14T18:48:32.290Z,0.20
2023-04-14T18:51:04.275Z,0.30
2023-04-14T18:53:32.528Z,0.20
2023-04-14T18:56:00.481Z,0.30
2023-04-14T18:58:29.332Z,0.20
2023-04-14T19:00:57.517Z,0.30
2023-04-14T19:03:27.248Z,0.20
2023-04-14T19:05:55.680Z,0.37
2023-04-14T19:08:23.610Z,0.30
2023-04-14T19:10:51.724Z,0.30
2023-04-14T19:13:19.730Z,0.20
2023-04-14T19:15:47.641Z,0.30
2023-04-14T19:18:16.762Z,0.30
2023-04-14T19:20:47.693Z,0.40
2023-04-14T19:23:15.698Z,0.30
2023-04-14T19:25:43.571Z,0.30
2023-04-14T19:28:16.561Z,0.20
2023-04-14T19:30:45.671Z,0.30
2023-04-14T19:33:13.858Z,0.30
2023-04-14T19:35:44.108Z,0.23
2023-04-14T19:38:13.698Z,0.30
2023-04-14T19:40:48.004Z,0.40
2023-04-14T19:43:16.180Z,0.30
2023-04-14T19:45:51.434Z,0.30
2023-04-14T19:48:23.474Z,0.20
2023-04-14T19:50:54.121Z,0.30
2023-04-14T19:53:24.770Z,0.20
2023-04-14T19:55:55.687Z,0.20
2023-04-14T19:58:24.630Z,0.30
2023-04-14T20:00:55.731Z,0.40
2023-04-14T20:03:24.266Z,0.30
2023-04-14T20:05:54.669Z,0.40
2023-04-14T20:08:24.269Z,0.30
2023-04-14T20:10:54.143Z,0.30
2023-04-14T20:13:23.128Z,0.20
2023-04-14T20:15:53.877Z,0.40
2023-04-14T20:18:23.252Z,0.30
2023-04-14T20:20:52.580Z,0.30
2023-04-14T20:23:20.724Z,0.30
2023-04-14T20:25:51.115Z,0.27
2023-04-14T20:28:19.896Z,0.30
2023-04-14T20:30:49.352Z,0.30
2023-04-14T20:33:18.668Z,0.30
2023-04-14T20:35:46.581Z,0.27
2023-04-14T20:38:15.560Z,0.30
2023-04-14T20:40:43.568Z,0.20
2023-04-14T20:43:12.898Z,0.30
2023-04-14T20:45:41.026Z,0.30
2023-04-14T20:48:09.115Z,0.40
2023-04-14T20:50:37.239Z,0.40
2023-04-14T20:53:05.200Z,0.40
2023-04-14T20:55:33.438Z,0.20
2023-04-14T20:58:01.303Z,0.30
2023-04-14T21:00:32.492Z,0.37
2023-04-14T21:03:03.490Z,0.30
2023-04-14T21:05:31.646Z,0.20
2023-04-14T21:07:59.513Z,0.30
2023-04-14T21:10:27.468Z,0.20
2023-04-14T21:15:24.854Z,0.20
2023-04-14T21:15:51.493Z,0.30
2023-04-14T21:18:19.926Z,0.30
2023-04-14T21:20:47.811Z,0.30
2023-04-14T21:23:16.021Z,0.30
2023-04-14T21:25:43.912Z,0.30
2023-04-14T21:28:12.116Z,0.30
2023-04-14T21:30:40.024Z,0.20
2023-04-14T21:33:09.383Z,0.20
2023-04-14T21:35:37.577Z,0.20
2023-04-14T21:38:05.578Z,0.20
2023-04-14T21:40:33.695Z,0.20
2023-04-14T21:43:01.580Z,0.30
2023-04-14T21:45:29.530Z,0.30
2023-04-14T21:47:57.760Z,0.30
2023-04-14T21:50:27.098Z,0.30
2023-04-14T21:52:55.249Z,0.30
2023-04-14T21:55:23.152Z,0.30
2023-04-14T21:57:52.100Z,0.30
2023-04-14T22:00:20.373Z,0.40
2023-04-14T22:02:48.650Z,0.30
2023-04-14T22:05:17.029Z,0.30
2023-04-14T22:07:46.509Z,0.30
2023-04-14T22:10:14.571Z,0.30
2023-04-14T22:12:43.933Z,0.30
2023-04-14T22:15:11.927Z,0.27
2023-04-14T22:17:39.971Z,0.20
2023-04-14T22:20:09.498Z,0.20
2023-04-14T22:22:37.482Z,0.30
2023-04-14T22:25:07.751Z,0.30
2023-04-14T22:27:36.035Z,0.30
2023-04-14T22:30:05.209Z,0.30
2023-04-14T22:32:33.190Z,0.20
2023-04-14T22:35:01.117Z,0.30
2023-04-14T22:37:29.006Z,0.20
2023-04-14T22:39:56.958Z,0.30
2023-04-14T22:42:26.404Z,0.40
2023-04-14T22:44:54.356Z,0.30
2023-04-14T22:47:22.355Z,0.30
2023-04-14T22:49:50.719Z,0.30
2023-04-14T22:52:18.748Z,0.40
2023-04-14T22:54:46.851Z,0.30
2023-04-14T22:57:14.706Z,0.30
2023-04-14T22:59:43.979Z,0.30
2023-04-14T23:02:12.679Z,0.30
2023-04-14T23:04:40.772Z,0.30
2023-04-14T23:07:08.716Z,0.30
2023-04-14T23:09:36.645Z,0.20
2023-04-14T23:12:04.766Z,0.30
2023-04-14T23:14:33.142Z,0.30
2023-04-14T23:17:02.886Z,0.30
2023-04-14T23:19:32.921Z,0.20
2023-04-14T23:22:01.829Z,0.30
2023-04-14T23:24:29.744Z,0.23
2023-04-14T23:26:57.702Z,0.40
2023-04-14T23:29:25.673Z,0.27
2023-04-14T23:31:53.738Z,0.30
2023-04-14T23:34:23.083Z,0.30
2023-04-14T23:36:50.935Z,0.30
2023-04-14T23:39:19.369Z,0.30
2023-04-14T23:41:47.603Z,0.20
2023-04-14T23:44:15.622Z,0.30
2023-04-14T23:46:43.551Z,0.30
2023-04-14T23:49:24.487Z,0.27
2023-04-14T23:52:00.960Z,0.20
2023-04-14T23:54:30.711Z,0.30
2023-04-14T23:56:58.727Z,0.20
2023-04-14T23:59:27.055Z,0.30
